Time;durP1;ratioP1;P1;durP2;ratioP2;P2;SDS_P1;SDS_P2;PMS_P1;PMS_P2;Temp;Humidity;BMP_temperature;BMP_pressure;BME280_temperature;BME280_humidity;BME280_pressure;Samples;Min_cycle;Max_cycle;Signal;HPM_P1;HPM_P2
2021/10/01 00:02:56;;;;;;;15.43;7.90;;;;;;;4.03;79.25;100145.87;2059954;85;20989;-80
2021/10/01 00:05:56;;;;;;;12.73;8.47;;;;;;;4.01;79.07;100150.06;2060017;86;20965;-80
2021/10/01 00:08:57;;;;;;;17.87;8.63;;;;;;;3.96;79.02;100141.16;2060032;85;21039;-80
2021/10/01 00:11:57;;;;;;;12.27;8.23;;;;;;;3.91;79.04;100141.28;2060778;85;20960;-80
2021/10/01 00:14:58;;;;;;;15.47;8.57;;;;;;;3.90;79.24;100152.41;2060901;85;20988;-80
2021/10/01 00:17:58;;;;;;;12.27;9.27;;;;;;;3.91;79.42;100149.92;2060783;86;20969;-80
2021/10/01 00:20:59;;;;;;;19.73;8.43;;;;;;;3.90;79.09;100150.73;2061089;86;21343;-79
2021/10/01 00:23:59;;;;;;;15.70;8.83;;;;;;;3.81;78.99;100149.78;2061146;85;20944;-80
2021/10/01 00:27:00;;;;;;;15.87;8.70;;;;;;;3.77;79.22;100144.34;2060634;86;20997;-80
2021/10/01 00:30:00;;;;;;;14.47;8.93;;;;;;;3.76;79.19;100146.44;2060855;85;21016;-80
2021/10/01 00:33:01;;;;;;;13.77;9.27;;;;;;;3.71;78.99;100147.45;2061047;85;20945;-80
2021/10/01 00:36:03;;;;;;;21.97;8.53;;;;;;;3.66;78.93;100143.71;2057639;86;20964;-80
2021/10/01 00:39:03;;;;;;;16.80;8.53;;;;;;;3.63;79.07;100147.41;2060957;86;21064;-80
2021/10/01 00:42:04;;;;;;;37.87;11.43;;;;;;;3.64;79.31;100147.00;2061888;85;21284;-80
2021/10/01 00:45:04;;;;;;;15.00;8.70;;;;;;;3.62;79.29;100146.91;2061024;85;21381;-80
2021/10/01 00:48:05;;;;;;;12.13;7.97;;;;;;;3.60;79.08;100142.45;2058257;86;21021;-80
2021/10/01 00:51:05;;;;;;;11.60;8.33;;;;;;;3.56;78.70;100138.80;2058142;86;20958;-80
2021/10/01 00:54:06;;;;;;;14.77;8.70;;;;;;;3.48;78.82;100135.76;2058291;86;20950;-80
2021/10/01 00:57:06;;;;;;;17.60;8.27;;;;;;;3.47;78.87;100127.92;2061441;86;20965;-80
2021/10/01 01:00:12;;;;;;;11.70;7.67;;;;;;;3.48;78.90;100129.70;2096475;84;20992;-79
2021/10/01 01:03:09;;;;;;;11.17;8.00;;;;;;;3.48;78.98;100130.99;2060562;86;20961;-80
2021/10/01 01:06:10;;;;;;;13.20;8.13;;;;;;;3.48;78.98;100126.72;2060625;85;21004;-80
2021/10/01 01:09:10;;;;;;;18.27;8.53;;;;;;;3.46;78.95;100127.00;2060843;85;21029;-80
2021/10/01 01:12:11;;;;;;;15.93;9.63;;;;;;;3.49;79.07;100123.34;2060766;85;21341;-80
2021/10/01 01:15:11;;;;;;;13.97;8.57;;;;;;;3.48;78.81;100122.84;2099296;85;20924;-80
2021/10/01 01:18:12;;;;;;;19.60;9.90;;;;;;;3.42;78.73;100117.69;2099658;84;20980;-80
2021/10/01 01:21:12;;;;;;;16.53;9.77;;;;;;;3.41;78.80;100122.36;2099229;84;20929;-80
2021/10/01 01:24:13;;;;;;;28.47;9.67;;;;;;;3.39;78.75;100123.95;2099344;84;21340;-82
2021/10/01 01:27:14;;;;;;;19.10;9.67;;;;;;;3.33;78.63;100125.77;2099333;85;20924;-80
2021/10/01 01:30:15;;;;;;;18.50;9.50;;;;;;;3.33;78.96;100115.84;2060918;86;21010;-81
2021/10/01 01:33:15;;;;;;;27.37;11.43;;;;;;;3.32;78.92;100123.98;2099495;85;21305;-79
2021/10/01 01:36:16;;;;;;;15.00;9.83;;;;;;;3.32;78.93;100126.56;2099010;85;21331;-79
2021/10/01 01:39:16;;;;;;;40.50;13.67;;;;;;;3.32;78.94;100123.98;2098760;85;21044;-80
2021/10/01 01:42:17;;;;;;;15.27;10.60;;;;;;;3.32;78.96;100123.09;2099195;85;20905;-80
2021/10/01 01:45:17;;;;;;;17.97;10.37;;;;;;;3.31;78.95;100118.73;2099219;85;20909;-79
2021/10/01 01:48:18;;;;;;;18.17;10.23;;;;;;;3.28;78.65;100121.13;2099389;85;20937;-79
2021/10/01 01:51:18;;;;;;;17.60;10.13;;;;;;;3.25;78.58;100126.09;2099375;85;20945;-79
2021/10/01 01:54:19;;;;;;;17.93;10.53;;;;;;;3.19;78.59;100130.09;2099379;85;20961;-80
2021/10/01 01:57:20;;;;;;;16.13;9.33;;;;;;;3.18;78.66;100133.86;2099293;85;20940;-80
2021/10/01 02:00:20;;;;;;;26.63;10.83;;;;;;;3.16;78.61;100131.59;2075287;85;21007;-80
2021/10/01 02:03:21;;;;;;;19.63;11.17;;;;;;;3.13;78.53;100132.29;2071857;86;21284;-81
2021/10/01 02:06:21;;;;;;;20.20;11.37;;;;;;;3.10;78.30;100133.39;2071551;86;21391;-81
2021/10/01 02:09:22;;;;;;;16.13;11.17;;;;;;;3.05;78.30;100139.95;2071328;86;21057;-80
2021/10/01 02:12:22;;;;;;;20.33;12.23;;;;;;;3.01;78.36;100139.28;2071273;86;20960;-80
2021/10/01 02:15:23;;;;;;;23.60;12.87;;;;;;;3.01;78.48;100135.41;2071472;86;21015;-81
2021/10/01 02:18:23;;;;;;;66.70;16.50;;;;;;;3.06;78.55;100142.14;2072062;86;20949;-79
2021/10/01 02:21:24;;;;;;;27.83;12.90;;;;;;;3.10;78.86;100146.69;2071700;86;20969;-79
2021/10/01 02:24:28;;;;;;;37.27;14.90;;;;;;;3.13;78.68;100150.35;2072527;86;21307;-78
2021/10/01 02:27:28;;;;;;;28.40;14.15;;;;;;;3.08;78.41;100150.86;2072898;86;21324;-79
2021/10/01 02:30:29;;;;;;;21.70;12.27;;;;;;;3.01;78.50;100152.17;2072797;86;20984;-79
2021/10/01 02:33:29;;;;;;;21.27;12.13;;;;;;;2.99;78.52;100154.16;2071762;86;20984;-79
2021/10/01 02:36:30;;;;;;;51.63;14.40;;;;;;;2.97;78.29;100152.78;2072865;86;20949;-78
2021/10/01 02:39:30;;;;;;;31.63;12.53;;;;;;;2.95;78.43;100154.38;2072300;86;21422;-81
2021/10/01 02:42:31;;;;;;;18.93;12.37;;;;;;;2.94;78.45;100153.88;2072145;86;20973;-80
2021/10/01 02:45:31;;;;;;;19.97;12.27;;;;;;;2.91;78.19;100152.39;2072618;85;20917;-79
2021/10/01 02:48:32;;;;;;;27.33;13.13;;;;;;;2.86;78.01;100152.11;2072789;86;21025;-80
2021/10/01 02:51:33;;;;;;;27.03;12.50;;;;;;;2.83;78.00;100153.20;2072270;86;20937;-80
2021/10/01 02:54:33;;;;;;;24.07;13.17;;;;;;;2.78;77.86;100151.12;2072191;86;20937;-80
2021/10/01 02:57:34;;;;;;;35.83;14.13;;;;;;;2.73;77.82;100148.66;2072350;86;21337;-81
2021/10/01 03:00:34;;;;;;;31.90;11.17;;;;;;;2.69;77.99;100150.55;2065535;84;21412;-80
2021/10/01 03:03:35;;;;;;;20.57;11.87;;;;;;;2.66;77.82;100147.38;2061101;85;20921;-80
2021/10/01 03:06:35;;;;;;;19.77;11.77;;;;;;;2.62;77.79;100146.69;2060951;86;20957;-80
2021/10/01 03:09:35;;;;;;;24.17;11.93;;;;;;;2.59;77.77;100144.28;2061066;86;21004;-79
2021/10/01 03:12:36;;;;;;;19.30;11.13;;;;;;;2.56;78.12;100142.00;2060990;86;20952;-80
2021/10/01 03:15:36;;;;;;;20.57;10.57;;;;;;;2.59;78.18;100145.57;2060738;86;21348;-80
2021/10/01 03:18:37;;;;;;;23.70;10.73;;;;;;;2.59;78.14;100140.02;2061118;86;20969;-80
2021/10/01 03:21:38;;;;;;;29.57;10.73;;;;;;;2.59;77.82;100134.86;2060983;86;20945;-80
2021/10/01 03:24:41;;;;;;;35.67;12.00;;;;;;;2.53;77.48;100139.23;2060930;86;20938;-80
2021/10/01 03:27:41;;;;;;;21.70;10.93;;;;;;;2.47;77.67;100133.69;2061064;85;20985;-80
2021/10/01 03:30:42;;;;;;;14.50;10.47;;;;;;;2.43;77.61;100136.86;2060912;86;20957;-80
2021/10/01 03:33:42;;;;;;;17.77;10.77;;;;;;;2.39;77.55;100132.30;2061131;86;21320;-80
2021/10/01 03:36:43;;;;;;;17.37;10.67;;;;;;;2.37;77.45;100131.31;2060772;86;20948;-80
2021/10/01 03:39:43;;;;;;;20.90;10.67;;;;;;;2.32;77.54;100122.79;2060988;85;21008;-80
2021/10/01 03:42:44;;;;;;;17.30;11.10;;;;;;;2.29;77.71;100111.00;2061464;86;20964;-80
2021/10/01 03:45:44;;;;;;;19.23;10.00;;;;;;;2.26;77.96;100103.96;2060607;86;20917;-79
2021/10/01 03:48:44;;;;;;;18.47;12.10;;;;;;;2.27;78.19;100108.72;2060362;86;20976;-78
2021/10/01 03:51:45;;;;;;;20.83;11.10;;;;;;;2.34;79.01;100109.61;2060889;86;20933;-79
2021/10/01 03:54:49;;;;;;;21.93;10.10;;;;;;;2.43;78.86;100106.33;2060461;86;21464;-80
2021/10/01 03:57:49;;;;;;;16.97;11.43;;;;;;;2.47;78.65;100109.20;2060491;86;21020;-80
2021/10/01 04:00:49;;;;;;;15.40;10.87;;;;;;;2.47;78.67;100104.05;2058466;84;21036;-80
2021/10/01 04:03:50;;;;;;;16.20;10.73;;;;;;;2.46;78.47;100100.08;2102115;85;20948;-80
2021/10/01 04:06:50;;;;;;;66.40;15.07;;;;;;;2.46;78.59;100102.66;2102072;84;20960;-80
2021/10/01 04:09:51;;;;;;;17.13;11.20;;;;;;;2.49;78.65;100105.03;2057908;85;21000;-79
2021/10/01 04:12:51;;;;;;;22.33;11.60;;;;;;;2.52;78.58;100105.23;2057996;86;20984;-78
2021/10/01 04:15:52;;;;;;;35.27;12.93;;;;;;;2.58;78.82;100107.70;2057433;86;21001;-79
2021/10/01 04:18:52;;;;;;;30.07;11.27;;;;;;;2.71;79.09;100107.71;2056566;86;21651;-80
2021/10/01 04:21:53;;;;;;;18.03;12.43;;;;;;;2.71;78.63;100115.05;2100476;85;21000;-80
2021/10/01 04:24:53;;;;;;;27.67;14.00;;;;;;;2.72;78.88;100115.94;2056314;85;20933;-80
2021/10/01 04:27:54;;;;;;;33.90;13.00;;;;;;;2.76;79.30;100113.65;2055605;86;20973;-80
2021/10/01 04:30:54;;;;;;;21.20;13.63;;;;;;;2.79;79.37;100115.53;2099695;85;20968;-80
2021/10/01 04:33:55;;;;;;;23.57;14.00;;;;;;;2.80;79.62;100120.78;2100818;85;21616;-79
2021/10/01 04:36:55;;;;;;;23.33;12.37;;;;;;;2.82;79.62;100115.72;2101755;84;20991;-80
2021/10/01 04:39:56;;;;;;;21.67;12.70;;;;;;;2.82;79.37;100120.88;2057145;85;20992;-79
2021/10/01 04:42:56;;;;;;;23.17;13.60;;;;;;;2.82;79.54;100126.03;2057373;86;20981;-80
2021/10/01 04:45:57;;;;;;;38.53;13.77;;;;;;;2.86;79.71;100128.89;2057312;86;20987;-80
2021/10/01 04:48:57;;;;;;;17.23;12.40;;;;;;;2.90;79.56;100129.98;2101148;85;21012;-79
2021/10/01 04:51:58;;;;;;;19.73;11.93;;;;;;;2.93;79.83;100127.59;2101117;85;20968;-80
2021/10/01 04:54:59;;;;;;;28.67;12.17;;;;;;;2.99;79.84;100127.97;2057091;85;21336;-80
2021/10/01 04:58:00;;;;;;;29.03;11.07;;;;;;;3.04;80.21;100131.73;2100856;85;20920;-81
2021/10/01 05:01:02;;;;;;;32.13;12.00;;;;;;;3.09;80.42;100126.45;2098483;84;21036;-81
2021/10/01 05:04:02;;;;;;;51.60;11.00;;;;;;;3.14;80.51;100127.63;2096757;85;21191;-82
2021/10/01 05:07:03;;;;;;;37.03;11.10;;;;;;;3.22;80.69;100129.38;2097342;85;20949;-78
2021/10/01 05:10:03;;;;;;;23.20;10.83;;;;;;;3.30;80.78;100129.84;2096558;85;21007;-78
2021/10/01 05:13:04;;;;;;;30.53;11.20;;;;;;;3.39;80.85;100126.13;2097732;85;20941;-78
2021/10/01 05:16:04;;;;;;;35.23;11.30;;;;;;;3.53;80.95;100124.81;2097918;85;20992;-80
2021/10/01 05:19:07;;;;;;;53.10;12.23;;;;;;;3.60;80.80;100121.40;2085513;85;20976;-78
2021/10/01 05:22:07;;;;;;;33.20;11.70;;;;;;;3.69;81.08;100125.81;2098025;85;20953;-78
2021/10/01 05:25:08;;;;;;;40.07;10.57;;;;;;;3.80;81.01;100129.03;2097324;85;21012;-78
2021/10/01 05:28:08;;;;;;;61.50;11.67;;;;;;;3.93;81.14;100134.52;2097737;85;21000;-78
2021/10/01 05:31:09;;;;;;;38.87;10.90;;;;;;;4.09;81.24;100129.44;2097411;85;20945;-78
2021/10/01 05:34:09;;;;;;;22.70;10.20;;;;;;;4.25;81.27;100125.63;2097595;85;20980;-78
2021/10/01 05:37:10;;;;;;;29.17;10.60;;;;;;;4.38;81.12;100127.25;2097347;85;21419;-78
2021/10/01 05:40:10;;;;;;;32.57;10.20;;;;;;;4.52;81.27;100128.02;2096787;85;21398;-80
2021/10/01 05:43:10;;;;;;;530.97;44.80;;;;;;;4.63;81.01;100133.39;2097239;85;20925;-79
2021/10/01 05:46:11;;;;;;;39.27;11.47;;;;;;;4.74;81.27;100131.89;2096782;85;20941;-79
2021/10/01 05:49:21;;;;;;;26.43;11.70;;;;;;;4.88;81.21;100133.94;2096352;85;21004;-78
2021/10/01 05:55:23;;;;;;;37.13;12.47;;;;;;;5.20;81.32;100133.49;2085185;85;20933;-78
2021/10/01 05:58:23;;;;;;;28.13;11.33;;;;;;;5.38;81.36;100131.91;2097522;85;20965;-78
2021/10/01 06:01:24;;;;;;;37.90;11.80;;;;;;;5.55;81.14;100136.27;2069473;83;21045;-80
2021/10/01 06:04:24;;;;;;;32.73;12.50;;;;;;;5.69;81.21;100136.98;2059792;86;21020;-80
2021/10/01 06:07:25;;;;;;;30.13;12.23;;;;;;;5.76;80.99;100141.27;2052488;86;20957;-79
2021/10/01 06:10:25;;;;;;;42.80;12.47;;;;;;;5.84;81.02;100139.47;2059457;86;21000;-78
2021/10/01 06:13:27;;;;;;;37.60;12.63;;;;;;;5.98;81.28;100143.69;2060234;86;21327;-80
2021/10/01 06:16:29;;;;;;;51.23;13.40;;;;;;;6.15;81.31;100138.98;2060386;85;20921;-79
2021/10/01 06:19:32;;;;;;;32.43;12.83;;;;;;;6.29;81.14;100134.47;2060383;86;21001;-79
2021/10/01 06:22:33;;;;;;;33.23;14.10;;;;;;;6.42;81.24;100142.44;2060459;84;21420;-79
2021/10/01 06:25:33;;;;;;;44.33;14.50;;;;;;;6.59;81.20;100146.73;2060253;86;20952;-79
2021/10/01 06:28:36;;;;;;;25.47;12.57;;;;;;;7.04;81.27;100137.67;2059827;86;21003;-78
2021/10/01 06:31:38;;;;;;;55.63;13.63;;;;;;;7.04;81.27;100137.67;2059974;85;21056;-81
2021/10/01 06:34:38;;;;;;;43.27;13.20;;;;;;;7.20;80.76;100139.27;2060675;86;20981;-80
2021/10/01 06:37:39;;;;;;;50.07;14.83;;;;;;;7.28;80.58;100144.40;2060180;85;20957;-80
2021/10/01 06:40:39;;;;;;;27.10;14.07;;;;;;;7.41;80.67;100143.24;2060142;86;21004;-79
2021/10/01 06:43:40;;;;;;;23.33;13.83;;;;;;;7.55;80.55;100139.14;2060327;85;20989;-78
2021/10/01 06:49:54;;;;;;;33.27;13.87;;;;;;;7.85;79.95;100145.23;2052764;86;21472;-79
2021/10/01 07:29:42;;;;;;;29.93;11.27;;;;;;;9.02;78.77;100151.84;2060263;86;21020;-80
2021/10/01 07:36:35;;;;;;;18.13;11.63;;;;;;;9.17;78.91;100156.33;2059615;85;21332;-77
2021/10/01 07:39:18;;;;;;;16.90;12.13;;;;;;;9.44;78.55;100144.33;2058382;86;21008;-78
2021/10/01 08:21:27;;;;;;;23.10;15.63;;;;;;;10.87;76.50;100151.48;2095813;84;21116;-77
2021/10/01 08:24:28;;;;;;;17.63;15.73;;;;;;;10.83;76.72;100150.08;2116196;84;21562;-78
2021/10/01 08:27:29;;;;;;;22.67;16.10;;;;;;;10.88;77.14;100149.33;2115834;84;21358;-77
2021/10/01 08:30:30;;;;;;;19.87;16.50;;;;;;;10.95;77.19;100143.46;2114832;84;20995;-78
2021/10/01 08:33:32;;;;;;;21.23;16.50;;;;;;;10.97;77.37;100143.97;2115279;84;20904;-78
2021/10/01 08:36:32;;;;;;;24.17;18.73;;;;;;;11.02;77.45;100152.84;2115729;84;20909;-79
2021/10/01 08:39:33;;;;;;;29.07;19.17;;;;;;;11.11;77.68;100148.31;2116032;83;20964;-78
2021/10/01 08:42:33;;;;;;;27.40;17.47;;;;;;;11.17;77.23;100144.16;2116078;84;21019;-78
2021/10/01 08:45:34;;;;;;;26.77;18.83;;;;;;;11.24;77.34;100143.92;2115927;84;20972;-79
2021/10/01 08:48:34;;;;;;;23.67;18.62;;;;;;;11.29;77.31;100153.23;2115115;83;21335;-78
2021/10/01 08:51:35;;;;;;;26.45;21.15;;;;;;;11.32;77.24;100145.06;2115502;83;20932;-78
2021/10/01 08:54:36;;;;;;;48.63;24.85;;;;;;;11.40;76.79;100138.33;2115239;84;21057;-80
2021/10/01 08:57:36;;;;;;;39.65;21.23;;;;;;;11.42;76.92;100134.03;2115542;84;20948;-78
2021/10/01 09:00:37;;;;;;;29.30;22.73;;;;;;;11.54;76.84;100140.45;2111285;83;20988;-78
2021/10/01 09:03:37;;;;;;;144.85;33.08;;;;;;;11.58;76.53;100137.97;2098477;85;20953;-78
2021/10/01 09:06:38;;;;;;;29.95;23.07;;;;;;;11.70;76.98;100136.13;2097730;85;20992;-78
2021/10/01 09:09:38;;;;;;;27.42;21.65;;;;;;;11.90;76.62;100135.39;2098604;85;20973;-78
2021/10/01 09:12:39;;;;;;;32.13;24.45;;;;;;;12.06;75.90;100134.53;2098527;85;21409;-79
2021/10/01 09:15:39;;;;;;;27.05;21.07;;;;;;;12.24;75.76;100130.65;2099016;85;21328;-79
2021/10/01 09:18:40;;;;;;;30.45;22.70;;;;;;;12.39;75.71;100131.03;2098916;85;20945;-78
2021/10/01 09:21:40;;;;;;;37.95;24.95;;;;;;;12.48;75.10;100122.52;2098321;85;20924;-79
2021/10/01 09:24:43;;;;;;;31.93;24.57;;;;;;;12.58;74.90;100120.58;2098203;85;20949;-78
2021/10/01 09:27:43;;;;;;;37.55;24.02;;;;;;;12.63;74.84;100117.22;2098025;85;21358;-78
2021/10/01 09:30:43;;;;;;;34.65;23.95;;;;;;;12.71;74.87;100116.09;2097828;85;20968;-79
2021/10/01 09:33:44;;;;;;;35.43;24.30;;;;;;;12.80;74.70;100120.66;2098460;85;20960;-79
2021/10/01 09:36:44;;;;;;;32.63;24.18;;;;;;;12.88;74.60;100125.23;2098597;85;20949;-78
2021/10/01 09:39:45;;;;;;;37.13;23.92;;;;;;;13.02;74.50;100118.59;2098329;85;20964;-77
2021/10/01 09:42:47;;;;;;;35.28;25.57;;;;;;;13.30;73.37;100104.80;2098622;85;21015;-80
2021/10/01 09:45:47;;;;;;;31.73;23.20;;;;;;;13.45;73.14;100099.87;2098342;85;20967;-79
2021/10/01 09:48:48;;;;;;;30.90;24.10;;;;;;;13.56;72.57;100106.64;2098347;85;21036;-78
2021/10/01 09:51:48;;;;;;;30.60;23.90;;;;;;;13.56;72.37;100111.89;2099160;85;20944;-78
2021/10/01 09:54:49;;;;;;;42.60;23.75;;;;;;;13.67;72.71;100111.67;2098891;85;20993;-78
2021/10/01 09:57:50;;;;;;;36.65;22.52;;;;;;;13.81;72.22;100111.51;2099191;84;21007;-78
2021/10/01 10:00:50;;;;;;;28.83;22.62;;;;;;;13.95;70.94;100108.75;2101375;84;21391;-77
2021/10/01 10:03:50;;;;;;;34.25;24.47;;;;;;;13.95;70.84;100103.92;2110328;84;20939;-80
2021/10/01 10:06:51;;;;;;;30.25;24.02;;;;;;;14.15;70.76;100105.59;2110585;84;20976;-77
2021/10/01 10:09:52;;;;;;;29.80;23.60;;;;;;;14.20;69.53;100099.98;2110370;84;20948;-78
2021/10/01 10:12:52;;;;;;;32.23;23.25;;;;;;;14.05;70.46;100105.86;2109268;84;21002;-78
2021/10/01 10:15:53;;;;;;;28.02;22.70;;;;;;;13.97;69.85;100103.09;2110008;84;21392;-79
2021/10/01 10:18:53;;;;;;;75.52;30.10;;;;;;;14.13;70.14;100095.06;2110126;84;20944;-76
2021/10/01 10:21:55;;;;;;;31.05;21.70;;;;;;;14.49;70.11;100093.51;2109773;84;20957;-78
2021/10/01 10:24:56;;;;;;;29.95;22.65;;;;;;;14.78;68.95;100088.73;2110182;84;21040;-78
2021/10/01 10:27:56;;;;;;;25.10;20.25;;;;;;;14.73;68.29;100092.11;2110585;84;20936;-78
2021/10/01 10:30:57;;;;;;;25.72;21.20;;;;;;;14.58;68.04;100094.96;2110571;84;21028;-78
2021/10/01 10:33:57;;;;;;;27.58;20.30;;;;;;;14.54;68.11;100091.83;2110080;84;21331;-78
2021/10/01 10:36:58;;;;;;;27.82;19.50;;;;;;;14.66;68.41;100089.39;2109802;84;20947;-78
2021/10/01 10:40:01;;;;;;;26.07;21.57;;;;;;;14.79;66.89;100096.18;2109042;84;20988;-78
2021/10/01 10:43:01;;;;;;;24.25;19.07;;;;;;;14.75;65.88;100083.86;2109082;84;20992;-77
2021/10/01 10:46:01;;;;;;;24.50;19.73;;;;;;;14.70;65.99;100087.70;2109621;84;21354;-79
2021/10/01 10:49:02;;;;;;;19.85;16.07;;;;;;;14.74;67.05;100082.97;2109486;84;21015;-78
2021/10/01 10:52:04;;;;;;;23.05;19.70;;;;;;;14.88;66.77;100075.28;2109030;84;20972;-77
2021/10/01 10:55:04;;;;;;;39.53;19.40;;;;;;;14.97;66.19;100072.78;2109250;84;21000;-78
2021/10/01 10:58:05;;;;;;;25.27;18.92;;;;;;;15.22;66.17;100068.30;2110225;84;21315;-78
2021/10/01 11:01:07;;;;;;;23.62;18.02;;;;;;;15.26;65.73;100061.33;2107128;84;20964;-78
2021/10/01 11:04:08;;;;;;;21.45;17.70;;;;;;;15.59;65.46;100059.55;2098121;85;20960;-77
2021/10/01 11:07:08;;;;;;;18.85;16.02;;;;;;;15.77;63.51;100056.25;2097926;85;21120;-77
2021/10/01 11:10:09;;;;;;;46.45;19.05;;;;;;;15.76;64.50;100047.48;2097250;85;20990;-79
2021/10/01 11:13:09;;;;;;;29.52;19.32;;;;;;;15.81;64.10;100041.83;2097571;85;21009;-78
2021/10/01 11:16:13;;;;;;;24.18;19.60;;;;;;;15.77;63.25;100047.92;2097806;85;21013;-78
2021/10/01 11:19:12;;;;;;;20.88;17.85;;;;;;;15.60;63.89;100042.89;2098447;84;21004;-79
2021/10/01 11:22:13;;;;;;;23.27;17.45;;;;;;;15.83;63.72;100040.09;2099070;85;21340;-78
2021/10/01 11:25:16;;;;;;;23.92;18.32;;;;;;;15.92;63.07;100034.91;2098345;85;20956;-78
2021/10/01 11:28:16;;;;;;;23.05;17.95;;;;;;;15.74;60.70;100033.42;2098306;84;20964;-78
2021/10/01 11:31:16;;;;;;;20.45;16.75;;;;;;;15.78;61.86;100031.70;2098184;85;21282;-78
2021/10/01 11:34:17;;;;;;;18.70;16.67;;;;;;;16.01;61.84;100020.94;2099222;85;20945;-77
2021/10/01 11:37:17;;;;;;;19.73;15.83;;;;;;;15.96;61.54;100021.77;2099201;85;20945;-79
2021/10/01 11:40:18;;;;;;;32.80;16.60;;;;;;;15.79;61.71;100015.91;2098572;85;20918;-76
2021/10/01 11:46:21;;;;;;;17.32;14.83;;;;;;;15.74;61.88;100009.72;2087546;85;21292;-79
2021/10/01 11:49:21;;;;;;;47.98;15.75;;;;;;;15.88;60.08;100006.78;2097951;85;20968;-78
2021/10/01 11:52:22;;;;;;;17.82;15.65;;;;;;;16.02;60.53;99999.44;2098240;85;20968;-78
2021/10/01 11:55:22;;;;;;;15.43;13.78;;;;;;;16.01;60.49;99999.88;2098226;85;20953;-77
2021/10/01 11:58:23;;;;;;;17.07;14.68;;;;;;;16.26;60.15;99994.36;2098072;85;21404;-79
2021/10/01 12:01:23;;;;;;;15.68;13.38;;;;;;;16.25;59.73;99981.62;2098446;84;20997;-77
2021/10/01 12:04:24;;;;;;;21.85;13.08;;;;;;;16.43;59.29;99982.17;2102800;84;20953;-76
2021/10/01 12:07:24;;;;;;;14.20;11.80;;;;;;;16.48;59.12;99977.84;2102301;84;20980;-80
2021/10/01 12:10:25;;;;;;;15.58;13.88;;;;;;;16.33;57.17;99973.77;2102718;84;21323;-81
2021/10/01 12:13:25;;;;;;;16.00;12.28;;;;;;;16.24;58.59;99971.07;2101892;84;21015;-80
2021/10/01 12:16:27;;;;;;;15.00;12.15;;;;;;;16.29;58.54;99959.25;2101370;85;20929;-81
2021/10/01 12:19:27;;;;;;;13.43;11.53;;;;;;;16.36;58.52;99963.69;2102066;85;20960;-81
2021/10/01 12:22:32;;;;;;;16.17;13.38;;;;;;;16.34;58.55;99961.04;2101822;84;20944;-79
2021/10/01 12:25:30;;;;;;;16.57;11.25;;;;;;;16.31;58.76;99954.87;2101588;84;21382;-80
2021/10/01 12:28:31;;;;;;;18.87;11.95;;;;;;;16.31;58.97;99950.91;2101551;84;20972;-80
2021/10/01 12:31:33;;;;;;;14.55;11.55;;;;;;;16.39;59.31;99944.82;2102035;84;20956;-79
2021/10/01 12:34:33;;;;;;;11.90;9.85;;;;;;;16.78;57.62;99937.61;2102046;84;20984;-79
2021/10/01 12:37:37;;;;;;;13.80;9.08;;;;;;;17.07;57.57;99923.20;2101756;84;20944;-80
2021/10/01 12:40:36;;;;;;;10.20;8.43;;;;;;;17.33;55.82;99922.38;2101515;84;21015;-80
2021/10/01 12:43:37;;;;;;;20.60;8.90;;;;;;;17.50;55.94;99919.36;2101887;84;21012;-77
2021/10/01 12:46:37;;;;;;;10.82;9.28;;;;;;;17.48;54.70;99917.16;2104090;84;20928;-80
2021/10/01 12:49:38;;;;;;;11.12;8.30;;;;;;;17.56;54.74;99911.88;2102984;85;20984;-80
2021/10/01 12:52:38;;;;;;;24.12;8.30;;;;;;;17.46;54.40;99911.00;2102891;84;21052;-80
2021/10/01 12:55:39;;;;;;;10.15;6.20;;;;;;;17.27;54.22;99907.86;2057239;86;21364;-80
2021/10/01 12:58:40;;;;;;;6.80;6.20;;;;;;;17.04;54.50;99906.49;2102465;84;21393;-78
2021/10/01 13:01:40;;;;;;;10.82;6.40;;;;;;;16.85;55.21;99901.16;2101213;84;20988;-80
2021/10/01 13:04:41;;;;;;;8.50;6.25;;;;;;;16.97;55.38;99897.69;2098382;85;20929;-80
2021/10/01 13:07:41;;;;;;;7.00;5.50;;;;;;;17.14;55.15;99892.00;2098059;84;20941;-79
2021/10/01 13:10:43;;;;;;;16.55;5.90;;;;;;;17.20;55.73;99890.70;2098530;84;20996;-79
2021/10/01 13:13:43;;;;;;;9.80;5.78;;;;;;;17.03;54.92;99881.88;2098913;85;21107;-79
2021/10/01 13:16:44;;;;;;;28.30;6.78;;;;;;;16.82;55.12;99887.97;2099058;85;20941;-78
2021/10/01 13:19:44;;;;;;;13.53;6.90;;;;;;;16.76;55.17;99881.36;2099132;84;21429;-79
2021/10/01 13:22:45;;;;;;;6.22;5.62;;;;;;;16.59;55.36;99872.47;2099617;84;20937;-79
2021/10/01 13:25:45;;;;;;;327.48;30.80;;;;;;;16.55;55.26;99874.22;2099161;84;20969;-81
2021/10/01 13:28:46;;;;;;;12.05;6.00;;;;;;;16.45;56.07;99872.82;2099030;85;20984;-79
2021/10/01 13:31:46;;;;;;;7.05;4.90;;;;;;;16.38;55.98;99866.64;2098410;84;20968;-81
2021/10/01 13:34:47;;;;;;;7.72;6.00;;;;;;;16.44;55.45;99867.11;2098440;84;20961;-80
2021/10/01 13:37:47;;;;;;;8.55;6.45;;;;;;;16.35;55.66;99863.99;2098575;85;21658;-80
2021/10/01 13:40:48;;;;;;;6.10;5.50;;;;;;;16.21;56.14;99860.41;2098340;85;21659;-79
2021/10/01 13:43:48;;;;;;;10.65;5.92;;;;;;;16.08;56.59;99854.63;2098354;84;21035;-80
2021/10/01 13:46:49;;;;;;;23.18;7.50;;;;;;;16.05;56.89;99849.34;2098560;85;20957;-79
2021/10/01 13:49:49;;;;;;;7.20;5.25;;;;;;;16.10;57.35;99847.62;2099228;84;21396;-81
2021/10/01 13:52:50;;;;;;;6.87;5.67;;;;;;;16.07;57.44;99850.23;2098301;84;20980;-80
2021/10/01 13:55:50;;;;;;;8.68;5.80;;;;;;;16.08;57.79;99850.68;2098640;84;20988;-80
2021/10/01 13:58:51;;;;;;;5.90;5.30;;;;;;;16.21;57.58;99845.92;2057166;86;20936;-79
2021/10/01 14:01:51;;;;;;;9.45;5.45;;;;;;;16.23;56.76;99844.17;2058951;85;20985;-79
2021/10/01 14:04:52;;;;;;;9.93;4.95;;;;;;;16.28;57.31;99833.66;2062044;86;20961;-79
2021/10/01 14:07:52;;;;;;;5.65;4.90;;;;;;;16.52;57.21;99833.79;2109890;84;21355;-79
2021/10/01 14:10:53;;;;;;;6.92;4.83;;;;;;;16.68;57.07;99828.16;2110261;84;20988;-78
2021/10/01 14:13:56;;;;;;;5.45;4.65;;;;;;;16.75;56.40;99825.98;2110286;84;21008;-80
2021/10/01 14:16:56;;;;;;;8.48;5.40;;;;;;;16.68;56.26;99821.58;2062087;85;20960;-79
2021/10/01 14:19:56;;;;;;;6.03;5.37;;;;;;;16.38;56.11;99825.80;2062173;86;20989;-79
2021/10/01 14:22:57;;;;;;;23.83;6.67;;;;;;;16.09;56.52;99825.67;2110729;84;20948;-79
2021/10/01 14:25:57;;;;;;;8.50;5.95;;;;;;;15.85;57.32;99821.14;2111176;84;20913;-79
2021/10/01 14:28:58;;;;;;;6.45;5.37;;;;;;;15.62;57.70;99831.08;2110988;84;20956;-79
2021/10/01 14:31:59;;;;;;;7.08;4.90;;;;;;;15.45;58.65;99823.88;2110930;84;20976;-79
2021/10/01 14:34:59;;;;;;;19.20;6.53;;;;;;;15.29;58.85;99827.25;2111180;84;21335;-80
2021/10/01 14:38:07;;;;;;;5.42;4.92;;;;;;;15.07;59.24;99829.23;2111040;84;20936;-80
2021/10/01 14:41:04;;;;;;;6.17;4.85;;;;;;;14.88;59.53;99820.30;2062708;86;20960;-81
2021/10/01 14:44:05;;;;;;;8.23;5.15;;;;;;;14.70;60.20;99825.33;2062278;86;21725;-79
2021/10/01 14:47:05;;;;;;;5.58;4.75;;;;;;;14.51;60.58;99818.55;2064109;86;20988;-80
2021/10/01 14:50:06;;;;;;;7.12;5.20;;;;;;;14.34;60.95;99814.38;2062166;85;21040;-79
2021/10/01 14:53:06;;;;;;;4.90;4.40;;;;;;;14.27;61.35;99811.66;2061784;86;20968;-78
2021/10/01 14:56:07;;;;;;;29.40;7.03;;;;;;;14.28;61.83;99812.11;2061870;86;20985;-79
2021/10/01 14:59:07;;;;;;;4.50;4.10;;;;;;;14.30;61.87;99814.33;2062397;85;21162;-80
2021/10/01 15:02:08;;;;;;;200.60;19.57;;;;;;;14.32;61.95;99812.60;2061253;85;20996;-78
2021/10/01 15:05:09;;;;;;;7.40;4.92;;;;;;;14.33;62.23;99802.11;2099161;85;21003;-79
2021/10/01 15:08:10;;;;;;;5.95;4.80;;;;;;;14.33;62.23;99802.11;2057872;86;21361;-79
2021/10/01 15:11:10;;;;;;;6.92;4.37;;;;;;;14.31;62.42;99797.28;2099295;85;20973;-79
2021/10/01 15:14:11;;;;;;;5.78;4.35;;;;;;;14.28;62.64;99797.23;2099378;85;21056;-78
2021/10/01 15:17:11;;;;;;;4.92;3.95;;;;;;;14.26;62.70;99792.83;2099469;85;21347;-79
2021/10/01 15:20:12;;;;;;;4.25;3.85;;;;;;;14.23;62.88;99796.73;2099635;85;21343;-80
2021/10/01 15:23:12;;;;;;;14.98;4.67;;;;;;;14.19;63.01;99793.19;2099122;85;20999;-79